sensor_id;sensor_type;location;lat;lon;timestamp;P1;durP1;ratioP1;P2;durP2;ratioP2
37477;SDS011;23334;54.316;10.182;2024-02-15T00:00:11;15.07;;;7.67;;
37477;SDS011;23334;54.316;10.182;2024-02-15T00:02:37;15.73;;;7.70;;
37477;SDS011;23334;54.316;10.182;2024-02-15T00:05:04;10.90;;;6.53;;
37477;SDS011;23334;54.316;10.182;2024-02-15T00:07:30;11.57;;;7.07;;
37477;SDS011;23334;54.316;10.182;2024-02-15T00:09:56;13.53;;;7.03;;
37477;SDS011;23334;54.316;10.182;2024-02-15T00:12:23;12.17;;;6.50;;
37477;SDS011;23334;54.316;10.182;2024-02-15T00:14:49;10.67;;;6.03;;
37477;SDS011;23334;54.316;10.182;2024-02-15T00:17:15;10.40;;;6.30;;
37477;SDS011;23334;54.316;10.182;2024-02-15T00:19:43;11.50;;;6.90;;
37477;SDS011;23334;54.316;10.182;2024-02-15T00:22:09;10.87;;;6.40;;
37477;SDS011;23334;54.316;10.182;2024-02-15T00:24:36;11.00;;;6.83;;
37477;SDS011;23334;54.316;10.182;2024-02-15T00:27:03;11.87;;;6.30;;
37477;SDS011;23334;54.316;10.182;2024-02-15T00:29:29;11.77;;;6.13;;
37477;SDS011;23334;54.316;10.182;2024-02-15T00:31:56;13.50;;;7.27;;
37477;SDS011;23334;54.316;10.182;2024-02-15T00:34:22;12.97;;;7.50;;
37477;SDS011;23334;54.316;10.182;2024-02-15T00:36:51;15.40;;;7.47;;
37477;SDS011;23334;54.316;10.182;2024-02-15T00:39:17;11.23;;;6.57;;
37477;SDS011;23334;54.316;10.182;2024-02-15T00:41:43;12.67;;;6.47;;
37477;SDS011;23334;54.316;10.182;2024-02-15T00:44:10;14.37;;;6.90;;
37477;SDS011;23334;54.316;10.182;2024-02-15T00:46:36;11.03;;;6.87;;
37477;SDS011;23334;54.316;10.182;2024-02-15T00:49:03;12.40;;;6.57;;
37477;SDS011;23334;54.316;10.182;2024-02-15T00:51:31;13.67;;;6.63;;
37477;SDS011;23334;54.316;10.182;2024-02-15T00:53:58;12.67;;;6.90;;
37477;SDS011;23334;54.316;10.182;2024-02-15T00:56:24;11.40;;;6.33;;
37477;SDS011;23334;54.316;10.182;2024-02-15T00:58:50;12.93;;;6.87;;
37477;SDS011;23334;54.316;10.182;2024-02-15T01:01:16;9.53;;;5.67;;
37477;SDS011;23334;54.316;10.182;2024-02-15T01:03:42;9.30;;;5.87;;
37477;SDS011;23334;54.316;10.182;2024-02-15T01:06:08;11.30;;;6.00;;
37477;SDS011;23334;54.316;10.182;2024-02-15T01:08:34;12.07;;;6.40;;
37477;SDS011;23334;54.316;10.182;2024-02-15T01:10:59;12.40;;;5.80;;
37477;SDS011;23334;54.316;10.182;2024-02-15T01:13:26;10.23;;;6.10;;
37477;SDS011;23334;54.316;10.182;2024-02-15T01:15:52;8.07;;;5.60;;
37477;SDS011;23334;54.316;10.182;2024-02-15T01:18:18;10.13;;;6.60;;
37477;SDS011;23334;54.316;10.182;2024-02-15T01:20:44;10.07;;;6.00;;
37477;SDS011;23334;54.316;10.182;2024-02-15T01:23:10;11.20;;;6.47;;
37477;SDS011;23334;54.316;10.182;2024-02-15T01:25:36;11.17;;;6.03;;
37477;SDS011;23334;54.316;10.182;2024-02-15T01:28:05;11.77;;;6.33;;
37477;SDS011;23334;54.316;10.182;2024-02-15T01:30:31;11.97;;;6.23;;
37477;SDS011;23334;54.316;10.182;2024-02-15T01:32:57;9.80;;;6.20;;
37477;SDS011;23334;54.316;10.182;2024-02-15T01:35:22;12.20;;;6.00;;
37477;SDS011;23334;54.316;10.182;2024-02-15T01:37:49;10.43;;;6.10;;
37477;SDS011;23334;54.316;10.182;2024-02-15T01:40:14;7.93;;;5.13;;
37477;SDS011;23334;54.316;10.182;2024-02-15T01:42:41;13.63;;;5.20;;
37477;SDS011;23334;54.316;10.182;2024-02-15T01:45:09;11.10;;;5.47;;
37477;SDS011;23334;54.316;10.182;2024-02-15T01:47:36;7.97;;;4.87;;
37477;SDS011;23334;54.316;10.182;2024-02-15T01:50:04;7.80;;;4.47;;
37477;SDS011;23334;54.316;10.182;2024-02-15T01:52:31;7.37;;;4.73;;
37477;SDS011;23334;54.316;10.182;2024-02-15T01:54:56;6.53;;;4.40;;
37477;SDS011;23334;54.316;10.182;2024-02-15T01:57:23;7.83;;;5.03;;
37477;SDS011;23334;54.316;10.182;2024-02-15T01:59:50;7.77;;;4.80;;
37477;SDS011;23334;54.316;10.182;2024-02-15T02:02:18;8.00;;;4.47;;
37477;SDS011;23334;54.316;10.182;2024-02-15T02:04:47;8.13;;;4.80;;
37477;SDS011;23334;54.316;10.182;2024-02-15T02:07:13;8.40;;;5.10;;
37477;SDS011;23334;54.316;10.182;2024-02-15T02:09:39;6.23;;;4.27;;
37477;SDS011;23334;54.316;10.182;2024-02-15T02:12:06;10.50;;;5.70;;
37477;SDS011;23334;54.316;10.182;2024-02-15T02:14:32;8.23;;;4.47;;
37477;SDS011;23334;54.316;10.182;2024-02-15T02:17:14;9.30;;;5.10;;
37477;SDS011;23334;54.316;10.182;2024-02-15T02:19:44;8.60;;;4.77;;
37477;SDS011;23334;54.316;10.182;2024-02-15T02:22:09;8.70;;;4.93;;
37477;SDS011;23334;54.316;10.182;2024-02-15T02:24:44;7.77;;;4.70;;
37477;SDS011;23334;54.316;10.182;2024-02-15T02:27:13;8.03;;;4.73;;
37477;SDS011;23334;54.316;10.182;2024-02-15T02:29:43;11.10;;;5.60;;
37477;SDS011;23334;54.316;10.182;2024-02-15T02:32:11;12.50;;;5.70;;
37477;SDS011;23334;54.316;10.182;2024-02-15T02:34:38;10.57;;;6.03;;
37477;SDS011;23334;54.316;10.182;2024-02-15T02:37:05;8.97;;;5.23;;
37477;SDS011;23334;54.316;10.182;2024-02-15T02:39:32;6.63;;;4.50;;
37477;SDS011;23334;54.316;10.182;2024-02-15T02:41:58;9.70;;;5.70;;
37477;SDS011;23334;54.316;10.182;2024-02-15T02:44:24;9.90;;;5.60;;
37477;SDS011;23334;54.316;10.182;2024-02-15T02:46:50;6.67;;;4.30;;
37477;SDS011;23334;54.316;10.182;2024-02-15T02:49:15;10.37;;;5.27;;
37477;SDS011;23334;54.316;10.182;2024-02-15T02:51:42;7.90;;;4.87;;
37477;SDS011;23334;54.316;10.182;2024-02-15T02:54:08;8.53;;;5.40;;
37477;SDS011;23334;54.316;10.182;2024-02-15T02:56:33;9.83;;;4.50;;
37477;SDS011;23334;54.316;10.182;2024-02-15T02:58:59;8.67;;;3.93;;
37477;SDS011;23334;54.316;10.182;2024-02-15T03:01:25;6.47;;;4.40;;
37477;SDS011;23334;54.316;10.182;2024-02-15T03:03:51;8.63;;;4.23;;
37477;SDS011;23334;54.316;10.182;2024-02-15T03:06:20;7.03;;;4.40;;
37477;SDS011;23334;54.316;10.182;2024-02-15T03:08:46;7.80;;;4.10;;
37477;SDS011;23334;54.316;10.182;2024-02-15T03:11:12;7.77;;;4.40;;
37477;SDS011;23334;54.316;10.182;2024-02-15T03:13:39;7.67;;;4.37;;
37477;SDS011;23334;54.316;10.182;2024-02-15T03:16:09;9.67;;;4.30;;
37477;SDS011;23334;54.316;10.182;2024-02-15T03:18:34;4.63;;;3.60;;
37477;SDS011;23334;54.316;10.182;2024-02-15T03:21:01;4.90;;;3.33;;
37477;SDS011;23334;54.316;10.182;2024-02-15T03:23:28;6.80;;;4.40;;
37477;SDS011;23334;54.316;10.182;2024-02-15T03:25:54;6.30;;;3.93;;
37477;SDS011;23334;54.316;10.182;2024-02-15T03:28:21;6.27;;;3.80;;
37477;SDS011;23334;54.316;10.182;2024-02-15T03:30:49;5.13;;;3.50;;
37477;SDS011;23334;54.316;10.182;2024-02-15T03:33:17;6.03;;;3.77;;
37477;SDS011;23334;54.316;10.182;2024-02-15T03:35:43;5.57;;;3.40;;
37477;SDS011;23334;54.316;10.182;2024-02-15T03:38:09;5.80;;;4.13;;
37477;SDS011;23334;54.316;10.182;2024-02-15T03:40:37;7.10;;;3.90;;
37477;SDS011;23334;54.316;10.182;2024-02-15T03:43:05;5.23;;;3.60;;
37477;SDS011;23334;54.316;10.182;2024-02-15T03:45:33;7.70;;;4.27;;
37477;SDS011;23334;54.316;10.182;2024-02-15T03:48:00;7.03;;;3.90;;
37477;SDS011;23334;54.316;10.182;2024-02-15T03:50:25;7.00;;;4.20;;
37477;SDS011;23334;54.316;10.182;2024-02-15T03:52:51;6.83;;;4.00;;
37477;SDS011;23334;54.316;10.182;2024-02-15T03:55:17;5.60;;;3.70;;
37477;SDS011;23334;54.316;10.182;2024-02-15T03:57:47;7.73;;;4.03;;
37477;SDS011;23334;54.316;10.182;2024-02-15T04:00:13;6.33;;;4.00;;
37477;SDS011;23334;54.316;10.182;2024-02-15T04:02:45;8.60;;;4.70;;
37477;SDS011;23334;54.316;10.182;2024-02-15T04:05:13;5.80;;;3.50;;
37477;SDS011;23334;54.316;10.182;2024-02-15T04:07:38;6.83;;;3.83;;
37477;SDS011;23334;54.316;10.182;2024-02-15T04:10:04;4.60;;;3.67;;
37477;SDS011;23334;54.316;10.182;2024-02-15T04:12:31;6.10;;;3.53;;
37477;SDS011;23334;54.316;10.182;2024-02-15T04:14:57;5.27;;;3.80;;
37477;SDS011;23334;54.316;10.182;2024-02-15T04:17:29;4.67;;;3.20;;
37477;SDS011;23334;54.316;10.182;2024-02-15T04:19:57;6.60;;;3.93;;
37477;SDS011;23334;54.316;10.182;2024-02-15T04:22:23;6.20;;;3.00;;
37477;SDS011;23334;54.316;10.182;2024-02-15T04:24:48;4.23;;;2.97;;
37477;SDS011;23334;54.316;10.182;2024-02-15T04:27:15;5.90;;;3.40;;
37477;SDS011;23334;54.316;10.182;2024-02-15T04:29:46;5.87;;;3.80;;
37477;SDS011;23334;54.316;10.182;2024-02-15T04:32:12;6.60;;;3.37;;
37477;SDS011;23334;54.316;10.182;2024-02-15T04:34:40;7.40;;;3.97;;
37477;SDS011;23334;54.316;10.182;2024-02-15T04:37:06;7.13;;;3.70;;
37477;SDS011;23334;54.316;10.182;2024-02-15T04:39:32;6.27;;;4.00;;
37477;SDS011;23334;54.316;10.182;2024-02-15T04:42:04;6.40;;;3.70;;
37477;SDS011;23334;54.316;10.182;2024-02-15T04:44:39;4.47;;;3.47;;
37477;SDS011;23334;54.316;10.182;2024-02-15T04:47:05;4.07;;;3.20;;
37477;SDS011;23334;54.316;10.182;2024-02-15T04:49:32;5.30;;;3.50;;
37477;SDS011;23334;54.316;10.182;2024-02-15T04:51:58;5.77;;;3.00;;
37477;SDS011;23334;54.316;10.182;2024-02-15T04:54:27;4.77;;;3.13;;
37477;SDS011;23334;54.316;10.182;2024-02-15T04:56:54;7.20;;;3.67;;
37477;SDS011;23334;54.316;10.182;2024-02-15T04:59:23;6.87;;;4.10;;
37477;SDS011;23334;54.316;10.182;2024-02-15T05:01:52;3.47;;;2.67;;
37477;SDS011;23334;54.316;10.182;2024-02-15T05:04:18;6.60;;;3.10;;
37477;SDS011;23334;54.316;10.182;2024-02-15T05:06:43;2.93;;;2.50;;
37477;SDS011;23334;54.316;10.182;2024-02-15T05:09:10;6.70;;;3.10;;
37477;SDS011;23334;54.316;10.182;2024-02-15T05:11:37;6.20;;;3.80;;
37477;SDS011;23334;54.316;10.182;2024-02-15T05:14:06;7.40;;;4.03;;
37477;SDS011;23334;54.316;10.182;2024-02-15T05:16:32;5.70;;;3.30;;
37477;SDS011;23334;54.316;10.182;2024-02-15T05:18:59;4.57;;;3.33;;
37477;SDS011;23334;54.316;10.182;2024-02-15T05:21:26;8.60;;;3.73;;
37477;SDS011;23334;54.316;10.182;2024-02-15T05:23:52;4.40;;;3.37;;
37477;SDS011;23334;54.316;10.182;2024-02-15T05:26:19;8.10;;;3.57;;
37477;SDS011;23334;54.316;10.182;2024-02-15T05:28:49;5.37;;;3.67;;
37477;SDS011;23334;54.316;10.182;2024-02-15T05:31:17;6.47;;;3.73;;
37477;SDS011;23334;54.316;10.182;2024-02-15T05:33:45;9.30;;;4.40;;
37477;SDS011;23334;54.316;10.182;2024-02-15T05:36:14;5.77;;;4.10;;
37477;SDS011;23334;54.316;10.182;2024-02-15T05:38:41;8.17;;;4.80;;
37477;SDS011;23334;54.316;10.182;2024-02-15T05:41:10;7.90;;;4.47;;
37477;SDS011;23334;54.316;10.182;2024-02-15T05:43:36;12.13;;;5.37;;
37477;SDS011;23334;54.316;10.182;2024-02-15T05:46:03;9.23;;;4.87;;
37477;SDS011;23334;54.316;10.182;2024-02-15T05:48:30;10.57;;;5.43;;
37477;SDS011;23334;54.316;10.182;2024-02-15T05:50:56;11.47;;;5.10;;
37477;SDS011;23334;54.316;10.182;2024-02-15T05:53:23;9.53;;;4.97;;
37477;SDS011;23334;54.316;10.182;2024-02-15T05:55:49;10.30;;;5.37;;
37477;SDS011;23334;54.316;10.182;2024-02-15T05:58:15;8.53;;;5.00;;
37477;SDS011;23334;54.316;10.182;2024-02-15T06:00:41;7.87;;;4.87;;
37477;SDS011;23334;54.316;10.182;2024-02-15T06:03:09;10.30;;;4.97;;
37477;SDS011;23334;54.316;10.182;2024-02-15T06:05:36;10.87;;;5.60;;
37477;SDS011;23334;54.316;10.182;2024-02-15T06:08:01;8.57;;;4.90;;
37477;SDS011;23334;54.316;10.182;2024-02-15T06:10:27;11.20;;;5.60;;
37477;SDS011;23334;54.316;10.182;2024-02-15T06:12:54;9.23;;;5.57;;
37477;SDS011;23334;54.316;10.182;2024-02-15T06:15:20;9.27;;;5.23;;
37477;SDS011;23334;54.316;10.182;2024-02-15T06:17:45;13.93;;;5.77;;
37477;SDS011;23334;54.316;10.182;2024-02-15T06:20:15;9.80;;;5.40;;
37477;SDS011;23334;54.316;10.182;2024-02-15T06:22:42;10.00;;;5.13;;
37477;SDS011;23334;54.316;10.182;2024-02-15T06:25:09;13.50;;;7.13;;
37477;SDS011;23334;54.316;10.182;2024-02-15T06:27:35;13.23;;;6.60;;
37477;SDS011;23334;54.316;10.182;2024-02-15T06:30:05;13.37;;;7.17;;
37477;SDS011;23334;54.316;10.182;2024-02-15T06:32:53;16.70;;;7.40;;
37477;SDS011;23334;54.316;10.182;2024-02-15T06:35:37;13.53;;;6.43;;
37477;SDS011;23334;54.316;10.182;2024-02-15T06:38:22;12.47;;;6.80;;
37477;SDS011;23334;54.316;10.182;2024-02-15T06:41:07;13.90;;;6.43;;
37477;SDS011;23334;54.316;10.182;2024-02-15T06:43:34;20.87;;;8.30;;
37477;SDS011;23334;54.316;10.182;2024-02-15T06:46:00;15.00;;;7.50;;
37477;SDS011;23334;54.316;10.182;2024-02-15T06:48:26;19.23;;;7.93;;
37477;SDS011;23334;54.316;10.182;2024-02-15T06:50:52;16.20;;;8.23;;
37477;SDS011;23334;54.316;10.182;2024-02-15T06:53:17;20.33;;;9.13;;
37477;SDS011;23334;54.316;10.182;2024-02-15T06:55:45;20.17;;;8.37;;
37477;SDS011;23334;54.316;10.182;2024-02-15T06:58:13;26.13;;;8.50;;
37477;SDS011;23334;54.316;10.182;2024-02-15T07:00:43;20.70;;;9.70;;
37477;SDS011;23334;54.316;10.182;2024-02-15T07:03:09;17.10;;;8.37;;
37477;SDS011;23334;54.316;10.182;2024-02-15T07:05:35;19.97;;;8.57;;
37477;SDS011;23334;54.316;10.182;2024-02-15T07:08:03;18.63;;;9.10;;
37477;SDS011;23334;54.316;10.182;2024-02-15T07:10:30;24.77;;;9.50;;
37477;SDS011;23334;54.316;10.182;2024-02-15T07:12:56;18.30;;;9.30;;
37477;SDS011;23334;54.316;10.182;2024-02-15T07:15:22;23.87;;;10.30;;
37477;SDS011;23334;54.316;10.182;2024-02-15T07:17:47;26.83;;;10.27;;
37477;SDS011;23334;54.316;10.182;2024-02-15T07:20:13;23.00;;;9.20;;
37477;SDS011;23334;54.316;10.182;2024-02-15T07:22:42;21.67;;;10.07;;
37477;SDS011;23334;54.316;10.182;2024-02-15T07:25:10;20.77;;;7.90;;
37477;SDS011;23334;54.316;10.182;2024-02-15T07:27:36;17.07;;;7.30;;
37477;SDS011;23334;54.316;10.182;2024-02-15T07:30:01;23.37;;;8.77;;
37477;SDS011;23334;54.316;10.182;2024-02-15T07:32:28;18.40;;;8.27;;
37477;SDS011;23334;54.316;10.182;2024-02-15T07:34:57;17.77;;;8.70;;
37477;SDS011;23334;54.316;10.182;2024-02-15T07:37:24;18.07;;;7.60;;
37477;SDS011;23334;54.316;10.182;2024-02-15T07:39:52;21.03;;;8.30;;
37477;SDS011;23334;54.316;10.182;2024-02-15T07:42:17;20.27;;;7.43;;
37477;SDS011;23334;54.316;10.182;2024-02-15T07:44:43;18.57;;;9.20;;
37477;SDS011;23334;54.316;10.182;2024-02-15T07:47:09;21.73;;;8.70;;
37477;SDS011;23334;54.316;10.182;2024-02-15T07:49:35;15.40;;;7.30;;
37477;SDS011;23334;54.316;10.182;2024-02-15T07:52:02;15.93;;;7.57;;
37477;SDS011;23334;54.316;10.182;2024-02-15T07:54:29;23.90;;;8.00;;
37477;SDS011;23334;54.316;10.182;2024-02-15T07:56:58;20.73;;;7.53;;
37477;SDS011;23334;54.316;10.182;2024-02-15T07:59:23;21.10;;;9.00;;
37477;SDS011;23334;54.316;10.182;2024-02-15T08:01:49;20.57;;;8.50;;
37477;SDS011;23334;54.316;10.182;2024-02-15T08:04:16;23.90;;;8.93;;
37477;SDS011;23334;54.316;10.182;2024-02-15T08:06:50;13.30;;;7.00;;
37477;SDS011;23334;54.316;10.182;2024-02-15T08:09:18;17.40;;;8.33;;
37477;SDS011;23334;54.316;10.182;2024-02-15T08:11:46;15.03;;;7.03;;
37477;SDS011;23334;54.316;10.182;2024-02-15T08:14:12;19.20;;;7.80;;
37477;SDS011;23334;54.316;10.182;2024-02-15T08:16:38;17.63;;;7.30;;
37477;SDS011;23334;54.316;10.182;2024-02-15T08:19:05;22.50;;;8.40;;
37477;SDS011;23334;54.316;10.182;2024-02-15T08:21:32;19.90;;;7.80;;
37477;SDS011;23334;54.316;10.182;2024-02-15T08:23:59;21.53;;;8.20;;
37477;SDS011;23334;54.316;10.182;2024-02-15T08:26:32;18.17;;;7.70;;
37477;SDS011;23334;54.316;10.182;2024-02-15T08:28:58;15.53;;;8.80;;
37477;SDS011;23334;54.316;10.182;2024-02-15T08:31:23;13.47;;;7.73;;
37477;SDS011;23334;54.316;10.182;2024-02-15T08:33:49;11.33;;;6.33;;
37477;SDS011;23334;54.316;10.182;2024-02-15T08:36:18;17.03;;;7.50;;
37477;SDS011;23334;54.316;10.182;2024-02-15T08:38:45;14.90;;;7.40;;
37477;SDS011;23334;54.316;10.182;2024-02-15T08:41:12;11.83;;;5.80;;
37477;SDS011;23334;54.316;10.182;2024-02-15T08:43:38;14.67;;;6.93;;
37477;SDS011;23334;54.316;10.182;2024-02-15T08:46:06;15.60;;;7.90;;
37477;SDS011;23334;54.316;10.182;2024-02-15T08:48:33;14.77;;;7.50;;
37477;SDS011;23334;54.316;10.182;2024-02-15T08:50:59;14.20;;;7.43;;
37477;SDS011;23334;54.316;10.182;2024-02-15T08:53:25;16.00;;;7.40;;
37477;SDS011;23334;54.316;10.182;2024-02-15T08:55:52;14.80;;;7.43;;
37477;SDS011;23334;54.316;10.182;2024-02-15T08:58:18;11.77;;;6.17;;
37477;SDS011;23334;54.316;10.182;2024-02-15T09:00:46;15.93;;;6.60;;
37477;SDS011;23334;54.316;10.182;2024-02-15T09:03:13;12.93;;;7.03;;
37477;SDS011;23334;54.316;10.182;2024-02-15T09:05:40;20.30;;;8.50;;
37477;SDS011;23334;54.316;10.182;2024-02-15T09:08:06;17.13;;;8.87;;
37477;SDS011;23334;54.316;10.182;2024-02-15T09:10:32;17.23;;;7.30;;
37477;SDS011;23334;54.316;10.182;2024-02-15T09:12:58;21.03;;;8.87;;
37477;SDS011;23334;54.316;10.182;2024-02-15T09:15:24;18.77;;;8.83;;
37477;SDS011;23334;54.316;10.182;2024-02-15T09:17:51;25.73;;;9.17;;
37477;SDS011;23334;54.316;10.182;2024-02-15T09:20:19;18.03;;;8.90;;
37477;SDS011;23334;54.316;10.182;2024-02-15T09:22:50;15.90;;;7.93;;
37477;SDS011;23334;54.316;10.182;2024-02-15T09:25:16;20.47;;;8.67;;
37477;SDS011;23334;54.316;10.182;2024-02-15T09:27:43;21.53;;;8.40;;
37477;SDS011;23334;54.316;10.182;2024-02-15T09:30:11;21.57;;;8.60;;
37477;SDS011;23334;54.316;10.182;2024-02-15T09:32:37;22.13;;;9.17;;
37477;SDS011;23334;54.316;10.182;2024-02-15T09:35:03;18.97;;;8.20;;
37477;SDS011;23334;54.316;10.182;2024-02-15T09:37:32;16.87;;;7.93;;
37477;SDS011;23334;54.316;10.182;2024-02-15T09:39:58;21.53;;;10.03;;
37477;SDS011;23334;54.316;10.182;2024-02-15T09:42:29;23.33;;;9.50;;
37477;SDS011;23334;54.316;10.182;2024-02-15T09:44:54;19.77;;;8.17;;
37477;SDS011;23334;54.316;10.182;2024-02-15T09:47:21;16.17;;;7.70;;
37477;SDS011;23334;54.316;10.182;2024-02-15T09:49:49;17.77;;;8.10;;
37477;SDS011;23334;54.316;10.182;2024-02-15T09:52:14;13.73;;;7.23;;
37477;SDS011;23334;54.316;10.182;2024-02-15T09:54:42;13.07;;;6.97;;
37477;SDS011;23334;54.316;10.182;2024-02-15T09:57:09;11.07;;;6.90;;
37477;SDS011;23334;54.316;10.182;2024-02-15T09:59:38;16.00;;;6.53;;
37477;SDS011;23334;54.316;10.182;2024-02-15T10:02:05;13.07;;;7.70;;
37477;SDS011;23334;54.316;10.182;2024-02-15T10:04:35;12.83;;;7.40;;
37477;SDS011;23334;54.316;10.182;2024-02-15T10:07:07;13.60;;;7.03;;
37477;SDS011;23334;54.316;10.182;2024-02-15T10:09:34;14.10;;;8.43;;
37477;SDS011;23334;54.316;10.182;2024-02-15T10:12:02;11.90;;;7.00;;
37477;SDS011;23334;54.316;10.182;2024-02-15T10:14:28;14.47;;;7.30;;
37477;SDS011;23334;54.316;10.182;2024-02-15T10:16:55;14.83;;;8.30;;
37477;SDS011;23334;54.316;10.182;2024-02-15T10:19:21;11.90;;;7.03;;
37477;SDS011;23334;54.316;10.182;2024-02-15T10:21:51;12.30;;;7.10;;
37477;SDS011;23334;54.316;10.182;2024-02-15T10:24:23;11.57;;;6.70;;
37477;SDS011;23334;54.316;10.182;2024-02-15T10:26:50;10.87;;;6.27;;
37477;SDS011;23334;54.316;10.182;2024-02-15T10:29:16;10.50;;;6.20;;
37477;SDS011;23334;54.316;10.182;2024-02-15T10:31:55;10.97;;;6.70;;
37477;SDS011;23334;54.316;10.182;2024-02-15T10:34:24;14.80;;;7.00;;
37477;SDS011;23334;54.316;10.182;2024-02-15T10:37:14;14.73;;;7.03;;
37477;SDS011;23334;54.316;10.182;2024-02-15T10:39:41;8.00;;;5.50;;
37477;SDS011;23334;54.316;10.182;2024-02-15T10:42:08;13.53;;;6.80;;
37477;SDS011;23334;54.316;10.182;2024-02-15T10:44:37;10.97;;;6.67;;
37477;SDS011;23334;54.316;10.182;2024-02-15T10:47:06;14.30;;;7.17;;
37477;SDS011;23334;54.316;10.182;2024-02-15T10:49:33;14.80;;;7.90;;
37477;SDS011;23334;54.316;10.182;2024-02-15T10:52:01;13.33;;;7.70;;
37477;SDS011;23334;54.316;10.182;2024-02-15T10:54:40;14.90;;;7.40;;
37477;SDS011;23334;54.316;10.182;2024-02-15T10:57:11;12.53;;;7.20;;
37477;SDS011;23334;54.316;10.182;2024-02-15T10:59:39;12.77;;;6.97;;
37477;SDS011;23334;54.316;10.182;2024-02-15T11:02:23;10.77;;;6.03;;
37477;SDS011;23334;54.316;10.182;2024-02-15T11:04:54;14.30;;;7.80;;
37477;SDS011;23334;54.316;10.182;2024-02-15T11:07:27;9.30;;;6.60;;
37477;SDS011;23334;54.316;10.182;2024-02-15T11:09:53;13.43;;;7.03;;
37477;SDS011;23334;54.316;10.182;2024-02-15T11:12:23;12.43;;;6.50;;
37477;SDS011;23334;54.316;10.182;2024-02-15T11:14:53;10.17;;;6.00;;
37477;SDS011;23334;54.316;10.182;2024-02-15T11:20:08;8.20;;;5.30;;
37477;SDS011;23334;54.316;10.182;2024-02-15T11:22:38;8.87;;;5.73;;
37477;SDS011;23334;54.316;10.182;2024-02-15T11:25:10;5.33;;;4.30;;
37477;SDS011;23334;54.316;10.182;2024-02-15T11:27:37;5.90;;;4.40;;
37477;SDS011;23334;54.316;10.182;2024-02-15T11:30:05;5.17;;;4.30;;
37477;SDS011;23334;54.316;10.182;2024-02-15T11:32:43;5.67;;;4.90;;
37477;SDS011;23334;54.316;10.182;2024-02-15T11:35:13;6.00;;;5.00;;
37477;SDS011;23334;54.316;10.182;2024-02-15T11:40:15;6.57;;;4.77;;
37477;SDS011;23334;54.316;10.182;2024-02-15T11:42:41;8.83;;;5.50;;
37477;SDS011;23334;54.316;10.182;2024-02-15T11:45:08;6.47;;;4.80;;
37477;SDS011;23334;54.316;10.182;2024-02-15T11:47:38;6.97;;;5.40;;
37477;SDS011;23334;54.316;10.182;2024-02-15T11:50:08;7.27;;;5.20;;
37477;SDS011;23334;54.316;10.182;2024-02-15T11:52:40;11.20;;;6.67;;
37477;SDS011;23334;54.316;10.182;2024-02-15T11:55:09;10.40;;;6.27;;
37477;SDS011;23334;54.316;10.182;2024-02-15T11:57:36;10.20;;;6.63;;
37477;SDS011;23334;54.316;10.182;2024-02-15T12:00:25;8.53;;;6.10;;
37477;SDS011;23334;54.316;10.182;2024-02-15T12:03:09;10.97;;;6.50;;
37477;SDS011;23334;54.316;10.182;2024-02-15T12:05:54;11.43;;;7.03;;
37477;SDS011;23334;54.316;10.182;2024-02-15T12:08:40;13.60;;;7.77;;
37477;SDS011;23334;54.316;10.182;2024-02-15T12:11:27;13.10;;;8.13;;
37477;SDS011;23334;54.316;10.182;2024-02-15T12:14:12;13.07;;;8.00;;
37477;SDS011;23334;54.316;10.182;2024-02-15T12:16:58;13.60;;;8.07;;
37477;SDS011;23334;54.316;10.182;2024-02-15T12:19:43;15.60;;;8.53;;
37477;SDS011;23334;54.316;10.182;2024-02-15T12:22:08;18.17;;;9.13;;
37477;SDS011;23334;54.316;10.182;2024-02-15T12:24:35;21.77;;;9.60;;
37477;SDS011;23334;54.316;10.182;2024-02-15T12:27:01;14.87;;;9.47;;
37477;SDS011;23334;54.316;10.182;2024-02-15T12:29:30;15.07;;;8.20;;
37477;SDS011;23334;54.316;10.182;2024-02-15T12:31:57;15.30;;;9.13;;
37477;SDS011;23334;54.316;10.182;2024-02-15T12:34:24;15.13;;;9.13;;
37477;SDS011;23334;54.316;10.182;2024-02-15T12:36:50;17.67;;;9.83;;
37477;SDS011;23334;54.316;10.182;2024-02-15T12:39:23;13.10;;;9.13;;
37477;SDS011;23334;54.316;10.182;2024-02-15T12:41:50;14.37;;;8.30;;
37477;SDS011;23334;54.316;10.182;2024-02-15T12:44:16;22.03;;;10.50;;
37477;SDS011;23334;54.316;10.182;2024-02-15T12:46:46;17.10;;;9.30;;
37477;SDS011;23334;54.316;10.182;2024-02-15T12:51:51;19.37;;;10.07;;
37477;SDS011;23334;54.316;10.182;2024-02-15T12:54:21;18.30;;;9.93;;
37477;SDS011;23334;54.316;10.182;2024-02-15T12:56:47;13.97;;;9.27;;
37477;SDS011;23334;54.316;10.182;2024-02-15T12:59:18;19.73;;;9.77;;
37477;SDS011;23334;54.316;10.182;2024-02-15T13:01:46;17.80;;;8.77;;
37477;SDS011;23334;54.316;10.182;2024-02-15T13:04:24;15.27;;;8.27;;
37477;SDS011;23334;54.316;10.182;2024-02-15T13:06:51;13.53;;;8.40;;
37477;SDS011;23334;54.316;10.182;2024-02-15T13:09:16;12.67;;;7.90;;
37477;SDS011;23334;54.316;10.182;2024-02-15T13:11:42;12.77;;;7.93;;
37477;SDS011;23334;54.316;10.182;2024-02-15T13:14:10;13.70;;;7.73;;
37477;SDS011;23334;54.316;10.182;2024-02-15T13:16:37;12.77;;;7.20;;
37477;SDS011;23334;54.316;10.182;2024-02-15T13:19:03;11.47;;;7.47;;
37477;SDS011;23334;54.316;10.182;2024-02-15T13:21:31;11.03;;;6.63;;
37477;SDS011;23334;54.316;10.182;2024-02-15T13:23:59;12.40;;;7.73;;
37477;SDS011;23334;54.316;10.182;2024-02-15T13:26:29;9.97;;;7.03;;
37477;SDS011;23334;54.316;10.182;2024-02-15T13:28:55;11.00;;;7.73;;
37477;SDS011;23334;54.316;10.182;2024-02-15T13:31:21;11.70;;;6.93;;
37477;SDS011;23334;54.316;10.182;2024-02-15T13:33:48;8.40;;;6.80;;
37477;SDS011;23334;54.316;10.182;2024-02-15T13:36:14;10.07;;;7.40;;
37477;SDS011;23334;54.316;10.182;2024-02-15T13:38:41;11.73;;;7.70;;
37477;SDS011;23334;54.316;10.182;2024-02-15T13:41:07;9.10;;;6.40;;
37477;SDS011;23334;54.316;10.182;2024-02-15T13:43:34;7.90;;;6.53;;
37477;SDS011;23334;54.316;10.182;2024-02-15T13:46:02;9.17;;;6.53;;
37477;SDS011;23334;54.316;10.182;2024-02-15T13:48:30;7.67;;;6.27;;
37477;SDS011;23334;54.316;10.182;2024-02-15T13:50:56;14.73;;;7.97;;
37477;SDS011;23334;54.316;10.182;2024-02-15T13:53:23;8.47;;;6.60;;
37477;SDS011;23334;54.316;10.182;2024-02-15T13:55:49;9.33;;;6.70;;
37477;SDS011;23334;54.316;10.182;2024-02-15T13:58:17;9.50;;;7.30;;
37477;SDS011;23334;54.316;10.182;2024-02-15T14:00:43;7.57;;;6.57;;
37477;SDS011;23334;54.316;10.182;2024-02-15T14:03:10;8.50;;;6.50;;
37477;SDS011;23334;54.316;10.182;2024-02-15T14:05:36;11.37;;;7.13;;
37477;SDS011;23334;54.316;10.182;2024-02-15T14:08:06;10.37;;;6.90;;
37477;SDS011;23334;54.316;10.182;2024-02-15T14:10:34;8.10;;;5.90;;
37477;SDS011;23334;54.316;10.182;2024-02-15T14:13:01;7.77;;;6.27;;
37477;SDS011;23334;54.316;10.182;2024-02-15T14:15:28;9.97;;;6.80;;
37477;SDS011;23334;54.316;10.182;2024-02-15T14:17:54;9.00;;;5.93;;
37477;SDS011;23334;54.316;10.182;2024-02-15T14:20:21;9.97;;;6.20;;
37477;SDS011;23334;54.316;10.182;2024-02-15T14:22:48;9.70;;;5.93;;
37477;SDS011;23334;54.316;10.182;2024-02-15T14:25:18;8.77;;;6.07;;
37477;SDS011;23334;54.316;10.182;2024-02-15T14:27:44;12.17;;;6.70;;
37477;SDS011;23334;54.316;10.182;2024-02-15T14:30:12;8.83;;;6.33;;
37477;SDS011;23334;54.316;10.182;2024-02-15T14:32:57;6.80;;;5.60;;
37477;SDS011;23334;54.316;10.182;2024-02-15T14:35:26;12.80;;;6.23;;
37477;SDS011;23334;54.316;10.182;2024-02-15T14:40:32;9.30;;;5.13;;